Time;durP1;ratioP1;P1;durP2;ratioP2;P2;SDS_P1;SDS_P2;PMS_P1;PMS_P2;Temp;Humidity;BMP_temperature;BMP_pressure;BME280_temperature;BME280_humidity;BME280_pressure;Samples;Min_cycle;Max_cycle;Signal;HPM_P1;HPM_P2
2021/03/07 00:02:20;;;;;;;26.52;18.70;;;;;;;12.05;35.91;102986.25;5052202;28;20453;-81
2021/03/07 00:04:46;;;;;;;29.80;19.48;;;;;;;12.02;35.98;102987.63;5054622;28;20057;-81
2021/03/07 00:07:12;;;;;;;24.48;16.08;;;;;;;11.97;36.04;102984.84;5054834;28;20047;-80
2021/03/07 00:09:37;;;;;;;48.47;27.45;;;;;;;11.90;36.04;102984.28;5053289;28;20047;-81
2021/03/07 00:12:03;;;;;;;26.05;17.17;;;;;;;11.92;36.11;102982.09;5055122;28;20075;-87
2021/03/07 00:14:29;;;;;;;31.77;20.60;;;;;;;11.89;35.99;102977.16;5056255;28;20476;-82
2021/03/07 00:16:54;;;;;;;35.10;21.42;;;;;;;11.76;36.43;102978.41;5055315;28;20060;-81
2021/03/07 00:19:20;;;;;;;21.45;16.83;;;;;;;11.89;36.15;102977.16;5054956;28;20044;-88
2021/03/07 00:21:45;;;;;;;22.60;15.07;;;;;;;11.84;36.18;102977.13;5056371;28;20025;-87
2021/03/07 00:24:11;;;;;;;41.67;24.67;;;;;;;11.76;36.22;102981.16;5056225;28;20057;-84
2021/03/07 00:26:37;;;;;;;27.55;16.25;;;;;;;11.76;36.08;102977.59;5055075;28;20025;-90
2021/03/07 00:29:03;;;;;;;20.52;15.90;;;;;;;11.68;36.17;102978.94;5054533;28;20488;-88
2021/03/07 00:31:28;;;;;;;27.48;18.35;;;;;;;11.60;36.43;102968.47;5055794;28;20025;-87
2021/03/07 00:33:54;;;;;;;25.63;16.52;;;;;;;11.46;36.68;102972.78;5054871;28;20051;-89
2021/03/07 00:36:19;;;;;;;26.23;17.00;;;;;;;11.44;36.71;102964.84;5055883;28;20025;-89
2021/03/07 00:38:45;;;;;;;25.52;16.65;;;;;;;11.41;36.63;102968.13;5054278;28;20029;-89
2021/03/07 00:41:11;;;;;;;32.33;17.65;;;;;;;11.51;36.65;102968.16;5054314;28;20045;-81
2021/03/07 00:43:37;;;;;;;74.38;32.72;;;;;;;11.52;36.29;102969.00;5053949;28;20029;-89
2021/03/07 00:46:04;;;;;;;154.18;59.13;;;;;;;11.44;36.37;102969.50;5055478;28;20041;-89
2021/03/07 00:48:30;;;;;;;26.83;16.75;;;;;;;11.39;36.69;102962.06;5054492;28;20040;-89
2021/03/07 00:50:56;;;;;;;32.58;19.05;;;;;;;11.43;36.60;102956.91;5055457;28;20029;-88
2021/03/07 00:53:21;;;;;;;37.67;22.45;;;;;;;11.40;36.61;102959.06;5054594;28;20492;-80
2021/03/07 00:55:47;;;;;;;23.00;16.58;;;;;;;11.44;36.58;102959.38;5055402;28;20021;-80
2021/03/07 00:58:12;;;;;;;27.73;17.60;;;;;;;11.49;36.21;102956.66;5055248;28;20040;-89
2021/03/07 01:00:40;;;;;;;52.33;26.27;;;;;;;11.50;36.36;102954.75;5055780;28;20021;-89
2021/03/07 01:03:06;;;;;;;42.65;21.65;;;;;;;11.42;36.17;102947.84;5055640;28;20104;-89
2021/03/07 01:05:32;;;;;;;32.55;19.33;;;;;;;11.48;36.36;102943.22;5054596;28;20119;-89
2021/03/07 01:07:59;;;;;;;87.57;41.25;;;;;;;11.43;36.41;102943.22;5053654;28;20491;-81
2021/03/07 01:10:34;;;;;;;40.47;21.13;;;;;;;11.38;36.48;102949.47;5054397;28;20442;-87
2021/03/07 01:13:00;;;;;;;27.10;16.80;;;;;;;11.39;36.55;102945.63;5054399;28;20025;-88
2021/03/07 01:15:28;;;;;;;21.33;15.80;;;;;;;11.33;36.37;102946.69;5053453;28;20037;-88
2021/03/07 01:17:54;;;;;;;38.70;22.67;;;;;;;11.46;36.17;102946.22;5055088;28;20029;-88
2021/03/07 01:20:20;;;;;;;24.92;15.82;;;;;;;11.45;36.28;102941.84;5054370;28;20088;-88
2021/03/07 01:22:46;;;;;;;25.17;16.65;;;;;;;11.42;36.25;102947.84;5055053;28;20395;-87
2021/03/07 01:25:12;;;;;;;26.75;20.15;;;;;;;11.36;36.53;102943.44;5054214;28;20032;-88
2021/03/07 01:27:38;;;;;;;22.95;16.00;;;;;;;11.23;36.67;102952.09;5054247;28;20029;-89
2021/03/07 01:30:07;;;;;;;20.70;14.63;;;;;;;11.32;36.63;102947.78;5054945;28;20024;-89
2021/03/07 01:32:33;;;;;;;17.85;14.00;;;;;;;11.36;36.59;102943.44;5053176;28;20025;-90
2021/03/07 01:34:59;;;;;;;17.88;13.80;;;;;;;11.30;36.68;102939.00;5054983;28;20024;-90
2021/03/07 01:37:24;;;;;;;19.58;13.90;;;;;;;11.35;36.42;102933.59;5053422;28;20480;-88
2021/03/07 01:39:50;;;;;;;18.75;13.77;;;;;;;11.35;36.29;102931.66;5055009;28;20036;-90
2021/03/07 01:42:16;;;;;;;21.58;14.35;;;;;;;11.40;36.28;102936.34;5054625;28;20404;-86
2021/03/07 01:44:41;;;;;;;21.95;13.38;;;;;;;11.32;36.32;102934.09;5054698;28;20028;-87
2021/03/07 01:47:08;;;;;;;20.05;13.15;;;;;;;11.29;36.47;102927.25;5054481;28;20056;-90
2021/03/07 01:49:35;;;;;;;19.92;13.55;;;;;;;11.27;36.61;102925.88;5053073;28;20033;-87
2021/03/07 01:52:00;;;;;;;24.00;13.55;;;;;;;11.24;36.41;102920.91;5054535;28;20487;-90
2021/03/07 01:54:26;;;;;;;19.90;13.43;;;;;;;11.27;36.60;102926.69;5054439;28;20036;-85
2021/03/07 01:56:53;;;;;;;17.20;12.82;;;;;;;11.34;36.21;102921.00;5053130;28;20025;-87
2021/03/07 01:59:24;;;;;;;18.77;14.77;;;;;;;11.29;36.24;102912.75;5053217;28;20032;-89
2021/03/07 02:01:50;;;;;;;22.75;14.45;;;;;;;11.15;36.53;102920.59;5054585;28;20029;-88
2021/03/07 02:04:16;;;;;;;24.05;13.60;;;;;;;11.25;36.44;102917.09;5054407;28;20383;-90
2021/03/07 02:06:42;;;;;;;18.08;13.38;;;;;;;11.25;36.27;102917.91;5054330;28;20033;-84
2021/03/07 02:09:08;;;;;;;23.10;13.70;;;;;;;11.23;36.22;102916.53;5052792;28;20415;-89
2021/03/07 02:11:37;;;;;;;24.58;15.48;;;;;;;10.99;36.55;102911.47;5053047;28;20056;-90
2021/03/07 02:14:06;;;;;;;16.60;12.43;;;;;;;10.99;36.64;102908.72;5054381;28;20064;-89
2021/03/07 02:16:33;;;;;;;22.08;13.30;;;;;;;10.97;36.78;102904.59;5052804;28;20116;-87
2021/03/07 02:18:59;;;;;;;21.90;15.23;;;;;;;10.94;36.84;102907.84;5052871;28;20481;-90
2021/03/07 02:21:33;;;;;;;22.13;13.57;;;;;;;10.99;36.88;102907.91;5054137;28;20029;-82
2021/03/07 02:24:10;;;;;;;23.05;14.50;;;;;;;10.99;36.66;102903.25;5053003;28;20056;-91
2021/03/07 02:26:43;;;;;;;17.55;13.05;;;;;;;10.95;36.95;102898.56;5053996;28;20041;-89
2021/03/07 02:29:09;;;;;;;21.35;13.20;;;;;;;10.92;36.89;102902.66;5054296;28;20029;-89
2021/03/07 02:31:42;;;;;;;20.42;14.02;;;;;;;10.90;37.00;102904.00;5052877;28;20025;-89
2021/03/07 02:34:17;;;;;;;17.92;13.68;;;;;;;10.89;36.96;102894.97;5053998;28;20025;-86
2021/03/07 02:36:47;;;;;;;19.40;13.65;;;;;;;10.84;37.01;102894.94;5053979;28;20024;-89
2021/03/07 02:39:16;;;;;;;18.10;13.63;;;;;;;10.89;36.85;102899.63;5053744;28;20032;-82
2021/03/07 02:41:43;;;;;;;23.17;15.82;;;;;;;10.93;36.64;102890.63;5052483;28;20044;-85
2021/03/07 02:44:14;;;;;;;19.58;13.70;;;;;;;10.85;36.78;102888.38;5052920;28;20028;-91
2021/03/07 02:46:41;;;;;;;20.20;15.32;;;;;;;10.87;36.75;102890.84;5053868;28;20025;-84
2021/03/07 02:49:11;;;;;;;18.52;14.10;;;;;;;10.87;36.48;102888.09;5053991;28;20064;-89
2021/03/07 02:51:37;;;;;;;;;;;;;;;10.76;36.90;102885.31;5053306;28;20032;-91
2021/03/07 02:54:06;;;;;;;22.45;14.43;;;;;;;10.76;37.01;102879.84;5053697;28;20294;-90
2021/03/07 02:56:35;;;;;;;20.52;15.05;;;;;;;10.90;36.59;102882.94;5266853;22;20783;-76
2021/03/07 02:59:07;;;;;;;20.60;14.57;;;;;;;10.96;36.78;102881.09;5071723;28;20050;-76
2021/03/07 03:01:35;;;;;;;19.73;14.60;;;;;;;10.94;36.61;102880.50;5072350;28;20028;-76
2021/03/07 03:04:01;;;;;;;26.02;15.82;;;;;;;10.97;36.86;102877.25;5072147;28;20021;-76
2021/03/07 03:06:28;;;;;;;19.77;14.43;;;;;;;10.97;36.65;102872.59;5070976;28;20024;-76
2021/03/07 03:08:56;;;;;;;21.40;15.35;;;;;;;10.87;36.99;102860.75;5072617;28;20082;-76
2021/03/07 03:11:26;;;;;;;23.20;14.75;;;;;;;10.81;36.93;102862.66;5072526;28;20035;-82
2021/03/07 03:13:52;;;;;;;20.85;15.90;;;;;;;10.86;36.90;102864.59;5072389;28;20036;-76
2021/03/07 03:16:23;;;;;;;24.48;15.38;;;;;;;10.86;36.93;102865.41;5072423;28;20033;-76
2021/03/07 03:18:50;;;;;;;24.15;14.15;;;;;;;10.93;36.52;102857.78;5072231;28;20363;-76
2021/03/07 03:21:16;;;;;;;21.08;15.48;;;;;;;10.90;36.54;102852.88;5071973;28;20036;-76
2021/03/07 03:23:41;;;;;;;24.48;14.85;;;;;;;10.87;36.86;102845.16;5072225;28;20035;-76
2021/03/07 03:26:11;;;;;;;22.58;13.90;;;;;;;10.82;36.77;102837.78;5071985;28;20028;-76
2021/03/07 03:28:40;;;;;;;20.88;15.45;;;;;;;10.73;36.86;102838.50;5070958;28;20371;-76
2021/03/07 03:31:07;;;;;;;;;;;;;;;10.66;37.12;102840.66;5073120;28;20040;-76
2021/03/07 03:33:32;;;;;;;25.13;14.90;;;;;;;10.79;36.80;102842.94;5072085;28;19912;-77
2021/03/07 03:35:59;;;;;;;21.67;14.80;;;;;;;10.83;36.99;102846.81;5072206;28;20027;-76
2021/03/07 03:38:35;;;;;;;19.63;15.05;;;;;;;10.71;36.93;102841.50;5074477;28;20025;-76
2021/03/07 03:41:02;;;;;;;19.48;14.88;;;;;;;10.70;37.02;102836.31;5076111;28;20028;-76
2021/03/07 03:43:28;;;;;;;20.73;14.77;;;;;;;10.69;37.00;102848.34;5075246;28;20078;-76
2021/03/07 03:45:58;;;;;;;18.63;14.43;;;;;;;10.68;37.12;102843.97;5075805;28;20036;-76
2021/03/07 03:48:30;;;;;;;22.20;14.50;;;;;;;10.64;37.17;102834.63;5075897;28;20037;-76
2021/03/07 03:50:58;;;;;;;22.63;15.07;;;;;;;10.69;36.75;102832.75;5074202;28;20478;-76
2021/03/07 03:53:24;;;;;;;26.13;15.30;;;;;;;10.60;36.97;102828.88;5075717;28;20071;-76
2021/03/07 03:55:52;;;;;;;19.50;14.60;;;;;;;10.64;36.88;102823.69;5075712;28;20021;-76
2021/03/07 03:58:22;;;;;;;20.45;14.80;;;;;;;10.58;37.01;102828.31;5075338;28;20455;-76
2021/03/07 04:00:49;;;;;;;24.60;16.08;;;;;;;10.54;37.35;102822.53;5074387;28;20490;-76
2021/03/07 04:03:17;;;;;;;20.27;15.90;;;;;;;10.55;37.26;102823.34;5075610;28;20021;-76
2021/03/07 04:05:48;;;;;;;18.55;15.05;;;;;;;10.51;37.35;102820.34;5075519;28;20115;-76
2021/03/07 04:08:19;;;;;;;21.25;15.88;;;;;;;10.48;37.08;102818.09;5075326;28;20067;-76
2021/03/07 04:10:47;;;;;;;25.15;16.00;;;;;;;10.50;37.07;102813.22;5075253;28;20087;-76
2021/03/07 04:13:17;;;;;;;20.20;15.95;;;;;;;10.46;37.06;102816.72;5075045;28;20044;-77
2021/03/07 04:15:43;;;;;;;20.20;16.13;;;;;;;10.43;37.25;102826.28;5075605;28;20082;-76
2021/03/07 04:18:14;;;;;;;19.63;14.85;;;;;;;10.50;37.11;102826.03;5073782;28;20067;-77
2021/03/07 04:20:44;;;;;;;20.75;14.93;;;;;;;10.51;37.00;102831.25;5073474;28;20127;-76
2021/03/07 04:23:10;;;;;;;23.00;14.00;;;;;;;10.48;37.30;102822.75;5058029;28;20028;-76
2021/03/07 04:25:36;;;;;;;25.25;15.38;;;;;;;10.60;37.15;102825.31;5055193;28;20033;-77
2021/03/07 04:28:04;;;;;;;17.30;14.45;;;;;;;10.59;36.80;102819.03;5054782;28;20033;-76
2021/03/07 04:30:31;;;;;;;19.55;14.85;;;;;;;10.64;36.73;102826.41;5054556;28;20074;-76
2021/03/07 04:32:57;;;;;;;18.77;14.48;;;;;;;10.64;36.71;102820.94;5052844;28;20470;-76
2021/03/07 04:35:23;;;;;;;20.33;15.27;;;;;;;10.67;36.91;102820.44;5054562;28;20044;-77
2021/03/07 04:37:49;;;;;;;24.48;16.45;;;;;;;10.61;36.91;102805.91;5054614;28;20032;-76
2021/03/07 04:40:15;;;;;;;26.13;16.52;;;;;;;10.49;37.13;102808.81;5054675;28;20094;-78
2021/03/07 04:42:42;;;;;;;19.90;14.98;;;;;;;10.42;37.48;102799.19;5054793;28;20021;-76
2021/03/07 04:45:12;;;;;;;19.05;16.00;;;;;;;10.46;37.24;102798.41;5054835;28;20098;-76
2021/03/07 04:47:38;;;;;;;21.98;15.48;;;;;;;10.34;37.22;102795.03;5053728;28;20039;-76
2021/03/07 04:50:04;;;;;;;22.40;17.40;;;;;;;10.36;37.29;102790.16;5053466;28;20032;-76
2021/03/07 04:52:29;;;;;;;23.60;15.77;;;;;;;10.38;37.17;102789.88;5053350;28;20478;-76
2021/03/07 04:54:55;;;;;;;26.35;15.50;;;;;;;10.29;37.29;102795.00;5054684;28;20078;-76
2021/03/07 04:57:21;;;;;;;21.00;15.65;;;;;;;10.30;37.08;102796.66;5053193;28;20505;-77
2021/03/07 04:59:46;;;;;;;23.83;15.05;;;;;;;10.26;37.31;102796.34;5054150;28;20037;-76
2021/03/07 05:02:12;;;;;;;20.20;16.02;;;;;;;10.24;37.49;102790.31;5054374;28;20417;-76
2021/03/07 05:04:37;;;;;;;23.77;15.85;;;;;;;10.25;37.29;102799.34;5054648;28;20016;-76
2021/03/07 05:07:03;;;;;;;25.50;15.95;;;;;;;10.20;37.45;102796.53;5054343;28;20390;-76
2021/03/07 05:09:29;;;;;;;20.30;15.18;;;;;;;10.18;37.46;102798.69;5054343;28;20056;-78
2021/03/07 05:11:55;;;;;;;20.58;15.27;;;;;;;10.13;37.78;102801.41;5052929;28;20017;-76
2021/03/07 05:14:20;;;;;;;25.55;15.48;;;;;;;10.08;37.99;102806.81;5054237;28;20036;-76
2021/03/07 05:16:46;;;;;;;22.02;15.35;;;;;;;10.01;38.18;102807.84;5054182;28;20020;-76
2021/03/07 05:19:11;;;;;;;19.98;15.38;;;;;;;9.96;37.97;102802.31;5052874;28;20405;-76
2021/03/07 05:21:37;;;;;;;22.02;15.27;;;;;;;9.96;38.36;102799.59;5053871;28;20017;-76
2021/03/07 05:24:03;;;;;;;24.95;15.90;;;;;;;9.95;38.33;102788.94;5053863;28;20103;-76
2021/03/07 05:26:29;;;;;;;24.20;16.48;;;;;;;9.91;38.20;102794.09;5053966;28;20032;-76
2021/03/07 05:28:58;;;;;;;20.52;15.68;;;;;;;9.91;37.98;102780.44;5054168;28;20025;-76
2021/03/07 05:31:23;;;;;;;20.23;14.27;;;;;;;9.98;38.18;102786.53;5053778;28;20025;-76
2021/03/07 05:33:49;;;;;;;21.17;15.60;;;;;;;9.98;38.29;102783.78;5053877;28;20025;-76
2021/03/07 05:36:15;;;;;;;22.55;15.18;;;;;;;9.99;38.23;102774.50;5053761;28;20024;-76
2021/03/07 05:38:41;;;;;;;24.17;17.45;;;;;;;9.97;37.95;102771.22;5053767;28;20025;-76
2021/03/07 05:41:07;;;;;;;26.42;16.98;;;;;;;9.80;38.58;102766.94;5053840;28;20017;-76
2021/03/07 05:43:34;;;;;;;21.33;16.65;;;;;;;9.83;38.70;102775.47;5053916;28;20024;-76
2021/03/07 05:46:00;;;;;;;23.63;16.60;;;;;;;9.82;38.43;102771.06;5053265;28;20021;-77
2021/03/07 05:48:29;;;;;;;21.83;15.43;;;;;;;9.74;38.26;102774.25;5052511;28;20143;-76
2021/03/07 05:50:55;;;;;;;29.08;17.23;;;;;;;9.78;38.21;102778.13;5053460;28;20024;-77
2021/03/07 05:53:21;;;;;;;23.42;16.35;;;;;;;9.69;38.44;102774.22;5053520;28;20545;-76
2021/03/07 05:55:47;;;;;;;22.15;15.48;;;;;;;9.69;38.86;102774.22;5053425;28;20013;-76
2021/03/07 05:58:14;;;;;;;23.67;16.42;;;;;;;9.77;38.43;102781.13;5053170;28;20102;-76
2021/03/07 06:00:40;;;;;;;23.50;15.85;;;;;;;9.81;38.43;102793.16;5052891;28;20021;-76
2021/03/07 06:03:06;;;;;;;21.80;15.77;;;;;;;9.79;38.49;102796.16;5053435;28;20036;-77
2021/03/07 06:05:33;;;;;;;22.98;15.05;;;;;;;9.79;38.49;102798.88;5053207;28;20033;-76
2021/03/07 06:07:59;;;;;;;22.58;15.63;;;;;;;9.78;38.50;102793.69;5051693;28;20044;-76
2021/03/07 06:10:27;;;;;;;25.00;17.77;;;;;;;9.79;38.55;102781.69;5053008;28;20039;-76
2021/03/07 06:13:05;;;;;;;22.23;16.15;;;;;;;9.73;38.64;102778.88;5052963;28;20445;-77
2021/03/07 06:15:31;;;;;;;22.40;15.25;;;;;;;9.71;38.55;102777.50;5053209;28;20425;-76
2021/03/07 06:17:57;;;;;;;22.38;17.23;;;;;;;9.80;38.33;102780.59;5053276;28;20499;-76
2021/03/07 06:20:25;;;;;;;23.83;16.45;;;;;;;9.78;38.59;102780.84;5052876;28;20510;-76
2021/03/07 06:23:00;;;;;;;24.60;16.17;;;;;;;9.70;38.55;102781.31;5051639;28;20063;-76
2021/03/07 06:25:26;;;;;;;23.15;17.13;;;;;;;9.73;38.76;102778.06;5052880;28;20025;-76
2021/03/07 06:27:53;;;;;;;22.02;14.80;;;;;;;9.72;38.72;102769.06;5051644;28;20441;-76
2021/03/07 06:30:39;;;;;;;23.42;15.55;;;;;;;9.63;38.67;102770.59;5052925;28;20036;-76
2021/03/07 06:33:04;;;;;;;22.13;16.08;;;;;;;9.53;38.82;102775.16;5052189;28;20044;-76
2021/03/07 06:35:32;;;;;;;23.75;15.23;;;;;;;9.64;38.69;102772.25;5052707;28;20387;-76
2021/03/07 06:38:00;;;;;;;21.23;15.48;;;;;;;9.67;38.81;102777.22;5052781;28;20033;-76
2021/03/07 06:40:44;;;;;;;22.58;15.93;;;;;;;9.69;38.73;102766.03;5052606;28;20044;-76
2021/03/07 06:43:22;;;;;;;25.30;17.55;;;;;;;9.60;39.08;102764.84;5052787;28;20021;-76
2021/03/07 06:45:47;;;;;;;23.58;16.23;;;;;;;9.60;38.93;102757.50;5052586;28;20032;-76
2021/03/07 06:48:13;;;;;;;20.23;15.23;;;;;;;9.58;39.13;102756.91;5052780;28;20025;-77
2021/03/07 06:50:58;;;;;;;28.80;16.35;;;;;;;9.53;39.06;102769.69;5052761;28;20025;-77
2021/03/07 06:53:35;;;;;;;18.85;15.57;;;;;;;9.57;39.11;102773.53;5052666;28;20029;-76
2021/03/07 06:56:01;;;;;;;23.40;16.90;;;;;;;9.63;38.80;102775.25;5052100;28;20052;-76
2021/03/07 06:58:26;;;;;;;25.88;16.35;;;;;;;9.56;39.14;102764.53;5052289;28;20049;-76
2021/03/07 07:00:52;;;;;;;22.77;16.00;;;;;;;9.68;38.99;102761.66;5052497;28;20367;-77
2021/03/07 07:03:18;;;;;;;20.45;16.45;;;;;;;9.54;39.10;102765.88;5052550;28;20481;-76
2021/03/07 07:05:45;;;;;;;21.13;15.73;;;;;;;9.53;39.13;102767.78;5052325;28;20025;-90
2021/03/07 07:08:13;;;;;;;19.67;15.18;;;;;;;9.54;39.36;102768.59;5052488;28;20522;-76
2021/03/07 07:11:06;;;;;;;20.88;16.02;;;;;;;9.53;39.23;102775.97;5052491;28;20386;-76
2021/03/07 07:13:42;;;;;;;23.98;16.65;;;;;;;9.52;39.47;102782.50;5053709;28;20045;-77
2021/03/07 07:16:09;;;;;;;20.60;14.77;;;;;;;9.53;39.43;102772.41;5055343;28;20086;-76
2021/03/07 07:18:38;;;;;;;16.45;14.15;;;;;;;9.49;39.39;102761.16;5056021;28;20639;-77
2021/03/07 07:21:06;;;;;;;25.92;15.82;;;;;;;9.54;39.37;102757.69;5056508;28;20104;-76
2021/03/07 07:23:32;;;;;;;20.02;15.88;;;;;;;9.58;39.51;102767.00;5056257;28;20040;-77
2021/03/07 07:25:58;;;;;;;23.70;15.95;;;;;;;9.64;39.36;102763.25;5056320;28;20025;-76
2021/03/07 07:28:25;;;;;;;21.17;15.25;;;;;;;9.71;39.08;102769.31;5056507;28;20063;-76
2021/03/07 07:31:14;;;;;;;21.40;15.13;;;;;;;9.59;39.70;102760.44;5056222;28;20098;-76
2021/03/07 07:33:44;;;;;;;23.57;16.43;;;;;;;9.64;39.51;102757.78;5056485;28;20029;-77
2021/03/07 07:36:18;;;;;;;22.65;15.00;;;;;;;9.68;39.59;102764.38;5056093;28;20273;-76
2021/03/07 07:38:44;;;;;;;21.63;15.80;;;;;;;9.73;39.54;102770.69;5056103;28;20063;-76
2021/03/07 07:41:38;;;;;;;22.02;16.20;;;;;;;9.83;39.36;102783.66;5055782;28;20028;-76
2021/03/07 07:44:09;;;;;;;24.13;16.27;;;;;;;9.93;39.13;102780.19;5064283;28;20359;-77
2021/03/07 07:46:54;;;;;;;21.83;16.27;;;;;;;9.83;39.59;102772.72;5074862;28;20024;-76
2021/03/07 07:49:39;;;;;;;21.63;14.95;;;;;;;9.85;39.50;102762.38;5074725;28;20040;-76
2021/03/07 07:52:30;;;;;;;23.30;16.40;;;;;;;9.95;39.72;102756.97;5074602;28;20054;-75
2021/03/07 07:55:14;;;;;;;31.43;17.70;;;;;;;9.97;39.49;102759.44;5067377;28;20394;-76
2021/03/07 07:57:42;;;;;;;21.52;15.23;;;;;;;10.18;39.35;102772.19;5073240;28;20040;-77
2021/03/07 08:00:14;;;;;;;21.40;14.55;;;;;;;10.12;39.74;102758.75;5071149;28;20036;-76
2021/03/07 08:02:42;;;;;;;19.27;14.80;;;;;;;10.18;39.35;102749.53;5075563;28;20028;-76
2021/03/07 08:05:28;;;;;;;20.63;14.65;;;;;;;10.09;39.97;102745.63;5075298;28;20024;-76
2021/03/07 08:08:08;;;;;;;22.95;16.35;;;;;;;10.38;39.26;102744.25;5068338;28;20041;-90
2021/03/07 08:10:37;;;;;;;;;;;;;;;10.34;39.85;102753.22;5076001;28;20070;-76
2021/03/07 08:13:35;;;;;;;24.75;15.35;;;;;;;10.47;39.31;102761.78;5074203;28;19959;-76
2021/03/07 08:16:05;;;;;;;25.27;15.43;;;;;;;10.63;39.40;102765.44;5074007;28;20028;-90
2021/03/07 08:18:54;;;;;;;22.10;15.63;;;;;;;10.71;39.32;102767.69;5073281;28;20034;-76
2021/03/07 08:21:23;;;;;;;22.35;15.80;;;;;;;10.71;39.50;102764.13;5075410;28;20032;-89
2021/03/07 08:24:15;;;;;;;21.00;15.10;;;;;;;10.92;39.04;102765.88;5075159;28;20103;-90
2021/03/07 08:26:43;;;;;;;18.15;14.88;;;;;;;11.13;38.72;102766.00;5073545;28;20024;-89
2021/03/07 08:29:36;;;;;;;23.75;15.45;;;;;;;11.25;38.77;102759.19;5076131;28;20041;-89
2021/03/07 08:32:24;;;;;;;24.33;15.07;;;;;;;11.43;38.53;102771.56;5076301;28;20025;-83
2021/03/07 08:34:50;;;;;;;21.60;15.35;;;;;;;11.58;38.48;102762.56;5076272;28;20024;-77
2021/03/07 08:37:16;;;;;;;20.77;15.50;;;;;;;11.74;38.10;102771.63;5074850;28;20086;-90
2021/03/07 08:39:42;;;;;;;26.38;14.45;;;;;;;11.75;38.35;102773.28;5075419;28;20111;-87
2021/03/07 08:42:08;;;;;;;19.00;13.60;;;;;;;11.72;38.45;102773.84;5075051;28;20037;-77
2021/03/07 08:44:33;;;;;;;29.67;15.32;;;;;;;11.86;38.46;102774.97;5074980;28;20017;-76
2021/03/07 08:47:00;;;;;;;19.27;13.38;;;;;;;12.02;38.33;102784.88;5075988;28;20067;-91
2021/03/07 08:49:28;;;;;;;23.25;14.93;;;;;;;11.97;38.54;102787.59;5075217;28;20024;-77
2021/03/07 08:51:59;;;;;;;20.60;14.52;;;;;;;12.15;38.22;102778.81;5073540;28;20540;-77
2021/03/07 08:54:29;;;;;;;20.58;14.73;;;;;;;12.20;38.33;102775.25;5072441;28;20098;-78
2021/03/07 08:56:56;;;;;;;21.75;13.85;;;;;;;12.24;38.17;102779.09;5072728;28;20048;-77
2021/03/07 08:59:28;;;;;;;19.90;12.98;;;;;;;12.35;37.96;102778.00;5072561;28;20049;-77
2021/03/07 09:01:55;;;;;;;21.80;13.90;;;;;;;12.48;37.91;102779.38;5074591;28;20033;-78
2021/03/07 09:04:21;;;;;;;38.50;17.63;;;;;;;12.53;37.99;102781.25;5074471;28;20505;-76
2021/03/07 09:06:48;;;;;;;19.38;13.38;;;;;;;12.66;37.96;102781.53;5074266;28;20028;-78
2021/03/07 09:09:15;;;;;;;25.35;15.23;;;;;;;12.78;37.99;102776.56;5073073;28;20024;-77
2021/03/07 09:11:50;;;;;;;29.10;15.60;;;;;;;12.88;37.65;102774.88;5074285;28;20060;-81
2021/03/07 09:14:17;;;;;;;29.50;18.77;;;;;;;12.96;37.48;102786.09;5074161;28;20071;-79
2021/03/07 09:16:47;;;;;;;39.08;18.40;;;;;;;13.02;37.57;102782.25;5072859;28;20775;-80
2021/03/07 09:19:19;;;;;;;27.35;16.58;;;;;;;12.82;37.93;102776.00;5074107;28;20116;-80
2021/03/07 09:21:44;;;;;;;25.30;16.13;;;;;;;12.76;38.19;102765.03;5073983;28;20024;-78
2021/03/07 09:24:10;;;;;;;103.60;66.63;;;;;;;12.72;38.21;102772.19;5072141;28;20046;-81
2021/03/07 09:26:36;;;;;;;34.88;27.00;;;;;;;12.90;38.08;102775.41;5071389;28;20074;-79
2021/03/07 09:29:02;;;;;;;61.15;34.55;;;;;;;13.01;38.08;102764.16;5073735;28;20031;-77
2021/03/07 09:31:33;;;;;;;87.32;44.05;;;;;;;13.08;37.97;102758.34;5072506;28;20081;-77
2021/03/07 09:34:01;;;;;;;140.48;79.15;;;;;;;13.02;38.28;102764.97;5073741;28;20027;-78
2021/03/07 09:36:29;;;;;;;90.00;49.65;;;;;;;13.21;38.08;102757.75;5072707;28;20021;-77
2021/03/07 09:38:57;;;;;;;25.65;17.33;;;;;;;13.54;37.38;102758.97;5073770;28;20024;-77
2021/03/07 09:41:38;;;;;;;235.70;121.53;;;;;;;13.50;37.51;102748.81;5073741;28;20378;-83
2021/03/07 09:44:06;;;;;;;177.38;103.05;;;;;;;13.35;37.74;102751.66;5073507;28;20053;-78
2021/03/07 09:46:33;;;;;;;52.38;30.27;;;;;;;13.56;37.47;102747.69;5072357;28;20032;-78
2021/03/07 09:49:06;;;;;;;59.45;33.28;;;;;;;13.48;37.46;102743.63;5073366;28;20394;-77
2021/03/07 09:51:38;;;;;;;243.88;136.48;;;;;;;13.60;37.29;102738.63;5072491;28;20497;-77
2021/03/07 09:54:09;;;;;;;28.50;16.20;;;;;;;13.71;37.23;102738.53;5073550;28;20032;-78
2021/03/07 09:56:36;;;;;;;28.42;16.40;;;;;;;13.62;37.41;102740.25;5073035;28;20135;-77
2021/03/07 09:59:25;;;;;;;18.35;10.30;;;;;;;13.67;37.50;102740.19;5072760;28;20032;-79
2021/03/07 10:02:01;;;;;;;66.53;54.22;;;;;;;13.80;36.97;102732.13;5072517;28;20058;-81
2021/03/07 10:04:36;;;;;;;34.47;14.05;;;;;;;14.00;36.94;102731.16;5072760;28;20025;-77
2021/03/07 10:07:25;;;;;;;18.15;10.07;;;;;;;13.91;37.08;102726.59;5072747;28;20028;-77
2021/03/07 10:10:03;;;;;;;25.88;13.27;;;;;;;14.08;36.69;102726.97;5073125;28;20044;-78
2021/03/07 10:12:55;;;;;;;50.95;22.42;;;;;;;13.85;36.61;102729.34;5073164;28;20024;-78
2021/03/07 10:15:50;;;;;;;31.83;19.50;;;;;;;13.99;36.75;102734.22;5073238;28;20356;-78
2021/03/07 10:18:17;;;;;;;18.67;12.35;;;;;;;14.19;36.60;102734.00;5069366;28;20082;-77
2021/03/07 10:20:48;;;;;;;12.85;8.73;;;;;;;14.31;36.59;102733.63;5071295;28;20021;-78
2021/03/07 10:23:14;;;;;;;13.88;9.07;;;;;;;14.62;35.94;102734.16;5071813;28;20056;-77
2021/03/07 10:25:47;;;;;;;25.08;17.73;;;;;;;14.89;35.54;102728.91;5071858;28;20430;-81
2021/03/07 10:28:27;;;;;;;31.33;21.63;;;;;;;14.46;36.59;102724.44;5072298;28;20062;-78
2021/03/07 10:30:54;;;;;;;33.67;13.25;;;;;;;14.56;36.45;102730.66;5073058;28;20359;-79
2021/03/07 10:33:22;;;;;;;14.10;9.40;;;;;;;14.71;36.17;102740.66;5073037;28;20052;-79
2021/03/07 10:36:10;;;;;;;25.17;12.13;;;;;;;14.96;36.04;102737.63;5072868;28;20107;-79
2021/03/07 10:38:42;;;;;;;42.60;15.75;;;;;;;15.06;35.72;102733.09;5072435;28;20024;-82
2021/03/07 10:41:22;;;;;;;41.95;13.80;;;;;;;14.92;36.16;102733.81;5072607;28;20028;-78
2021/03/07 10:43:57;;;;;;;22.13;11.20;;;;;;;15.15;35.95;102732.16;5072723;28;20043;-78
2021/03/07 10:46:25;;;;;;;22.85;10.13;;;;;;;15.28;35.85;102736.13;5072273;28;20360;-78
2021/03/07 10:48:57;;;;;;;16.17;9.63;;;;;;;15.41;35.60;102732.59;5072390;28;20549;-78
2021/03/07 10:51:24;;;;;;;37.60;12.82;;;;;;;15.43;35.78;102729.56;5072383;28;20500;-78
2021/03/07 10:53:51;;;;;;;14.68;9.13;;;;;;;15.52;35.68;102734.09;5072661;28;20028;-79
2021/03/07 10:56:17;;;;;;;20.73;9.68;;;;;;;15.61;35.45;102736.19;5088017;28;20451;-81
2021/03/07 10:58:42;;;;;;;16.85;10.70;;;;;;;15.69;35.46;102728.09;5070950;28;20128;-78
2021/03/07 11:01:14;;;;;;;23.85;11.48;;;;;;;15.70;35.29;102735.22;5072192;28;20107;-78
2021/03/07 11:03:39;;;;;;;20.08;10.70;;;;;;;15.80;35.34;102739.78;5072817;28;20135;-83
2021/03/07 11:06:05;;;;;;;24.45;12.40;;;;;;;15.95;35.20;102728.50;5072458;28;20530;-81
2021/03/07 11:08:31;;;;;;;27.10;11.38;;;;;;;15.84;35.44;102735.28;5072106;28;20028;-78
2021/03/07 11:10:56;;;;;;;15.25;9.70;;;;;;;16.01;35.11;102732.78;5072213;28;20086;-76
2021/03/07 11:13:22;;;;;;;22.90;9.27;;;;;;;16.12;34.72;102729.88;5072398;28;20084;-78
2021/03/07 11:15:48;;;;;;;16.02;11.70;;;;;;;16.18;34.90;102732.25;5070642;28;20063;-75
2021/03/07 11:18:13;;;;;;;24.15;9.95;;;;;;;16.25;34.84;102731.88;5071927;28;20028;-77
2021/03/07 11:20:39;;;;;;;35.78;11.35;;;;;;;16.32;34.49;102735.88;5068018;28;20041;-76
2021/03/07 11:23:05;;;;;;;16.52;9.43;;;;;;;16.50;34.53;102736.09;5071116;28;20141;-76